ADDS METAR Data INFO
IDs: Format: Raw Decoded Include TAF

Data at: 0102 UTC 22 Oct 2017

K5R8 220055Z AUTO 15004KT 10SM CLR 25/22 A2996 RMK AO2 LTG DSNT NE AND E T02460222
K5R8 220035Z AUTO 14005KT 10SM CLR 25/22 A2996 RMK AO2 LTG DSNT E T02500222
K5R8 220015Z AUTO 13006KT 10SM CLR 25/22 A2995 RMK AO2 LTG DSNT NE AND E T02520220
K5R8 212355Z AUTO 14004KT 10SM CLR 25/22 A2995 RMK AO2 LTG DSNT NE AND E T02530218 10307 20253
K5R8 212335Z AUTO 15005KT 10SM CLR 26/22 A2994 RMK AO2 LTG DSNT NE AND E T02590218
K5R8 212315Z AUTO 16004KT 10SM CLR 27/22 A2994 RMK AO2 LTG DSNT NE AND E T02650220
K5R8 212255Z AUTO 16006KT 10SM CLR 27/22 A2994 RMK AO2 LTG DSNT NE T02710220
K5R8 212235Z AUTO 17006KT 10SM CLR 28/22 A2994 RMK AO2 LTG DSNT NE AND E T02760219
K5R8 212215Z AUTO 18006KT 10SM SCT033 SCT039 28/22 A2995 RMK AO2 LTG DSNT NE AND E T02830217
K5R8 212155Z AUTO 18008KT 10SM SCT032 SCT037 29/22 A2995 RMK AO2 LTG DSNT E T02920215
K5R8 212135Z AUTO 15011KT 10SM BKN034 BKN041 BKN065 30/21 A2994 RMK AO2 LTG DSNT NE THRU SE T02960214
K5R8 212115Z AUTO 17007KT 10SM VCTS SCT036 SCT041 30/21 A2994 RMK AO2 LTG DSNT N THRU E T03000207
K5R8 212055Z AUTO 17009KT 10SM BKN034 BKN043 30/21 A2994 RMK AO2 LTG DSNT NE T03000209
K5R8 212035Z AUTO 15008KT 10SM BKN032 29/21 A2994 RMK AO2 LTG DSNT E T02920210
K5R8 212015Z AUTO 15009G14KT 10SM SCT030 BKN038 31/21 A2995 RMK AO2 T03070212
K5R8 211955Z AUTO 16009KT 10SM SCT023 SCT028 BKN075 30/22 A2995 RMK AO2 T03000218
K5R8 211935Z AUTO 13004KT 10SM SCT060 OVC075 28/23 A2995 RMK AO2 T02810228
K5R8 211915Z AUTO 12007KT 10SM SCT020 BKN060 OVC075 28/23 A2996 RMK AO2 T02780228
K5R8 211855Z AUTO 12007KT 10SM SCT022 SCT028 BKN075 29/23 A2996 RMK AO2 LTG DSNT E T02910226
K5R8 211835Z AUTO 12008KT 10SM SCT022 SCT027 BKN075 28/22 A2997 RMK AO2 T02810221
K5R8 211815Z AUTO 12009G15KT 10SM BKN022 BKN029 BKN036 28/22 A2998 RMK AO2 LTG DSNT S T02830223
K5R8 211755Z AUTO 15011G16KT 10SM BKN022 BKN036 29/22 A2999 RMK AO2 LTG DSNT S T02890224 10289 20216
K5R8 211735Z AUTO 14009G15KT 10SM BKN023 BKN031 BKN038 29/23 A3000 RMK AO2 LTG DSNT S T02870225
K5R8 211715Z AUTO 13009KT 10SM BKN019 BKN029 BKN035 28/23 A3001 RMK AO2 T02800226
K5R8 211655Z AUTO 13006KT 10SM BKN019 BKN024 OVC060 27/23 A3002 RMK AO2 T02700229
K5R8 211635Z AUTO 13006KT 10SM SCT011 BKN015 OVC060 26/23 A3002 RMK AO2 T02610230
K5R8 211615Z AUTO 11004KT 10SM OVC011 26/23 A3003 RMK AO2 T02570230
K5R8 211555Z AUTO 11003KT 10SM -RA OVC011 25/23 A3003 RMK AO2 LTG DSNT SE T02490225
K5R8 211535Z AUTO 11006KT 10SM OVC011 25/22 A3003 RMK AO2 T02510224
K5R8 211515Z AUTO 12005KT 10SM OVC009 25/22 A3003 RMK AO2 T02530224
K5R8 211455Z AUTO 12004KT 10SM OVC007 24/22 A3003 RMK AO2 T02410220
K5R8 211435Z AUTO 10007KT 10SM OVC007 24/22 A3003 RMK AO2 T02380218
K5R8 211415Z AUTO 09003KT 10SM BKN007 OVC013 23/21 A3002 RMK AO2 T02300213
K5R8 211355Z AUTO 12004KT 10SM BKN007 OVC019 23/21 A3001 RMK AO2 T02300212
K5R8 211335Z AUTO 11004KT 10SM BKN005 OVC021 23/21 A3001 RMK AO2 LTG DSNT SE T02250212
K5R8 211315Z AUTO 10004KT 10SM OVC003 22/21 A3000 RMK AO2 T02180212
K5R8 211255Z AUTO 00000KT 7SM SCT003 22/21 A2999 RMK AO2 T02160211
K5R8 211235Z AUTO 00000KT 7SM SCT006 22/21 A2998 RMK AO2 T02170211
K5R8 211215Z AUTO 11003KT 10SM BKN006 22/21 A2999 RMK AO2 T02200212
K5R8 211155Z AUTO 10003KT 10SM OVC004 22/21 A2999 RMK AO2 70006 T02180211 10218 20201
K5R8 211135Z AUTO 11004KT 10SM OVC004 22/21 A2999 RMK AO2 T02180211
K5R8 211115Z AUTO 12004KT 10SM OVC004 22/21 A2998 RMK AO2 T02180211
K5R8 211055Z AUTO 11006KT 10SM OVC004 22/21 A2997 RMK AO2 LTG DSNT SE T02170210
K5R8 211035Z AUTO 11007KT 10SM OVC004 22/21 A2996 RMK AO2 T02170210
K5R8 211015Z AUTO 12006KT 10SM OVC004 22/21 A2996 RMK AO2 T02170210
K5R8 210955Z AUTO 12006KT 10SM OVC004 22/21 A2996 RMK AO2 T02160210
K5R8 210935Z AUTO 11007KT 10SM OVC004 22/21 A2996 RMK AO2 LTG DSNT SE T02150208
K5R8 210915Z AUTO 10005KT 10SM OVC004 21/21 A2997 RMK AO2 T02130207
K5R8 210855Z AUTO 10004KT 10SM OVC004 21/21 A2998 RMK AO2 LTG DSNT SE T02130207
K5R8 210835Z AUTO 11004KT 10SM OVC004 21/21 A2998 RMK AO2 T02120206
K5R8 210815Z AUTO 10004KT 10SM OVC006 21/20 A2998 RMK AO2 T02100203
K5R8 210755Z AUTO 10003KT 10SM OVC006 21/20 A2999 RMK AO2 T02080201
K5R8 210735Z AUTO 10003KT 10SM OVC010 21/20 A2999 RMK AO2 T02060200
K5R8 210715Z AUTO 00000KT 10SM SCT012 BKN050 OVC075 21/20 A3000 RMK AO2 T02050198
K5R8 210655Z AUTO 09003KT 10SM SCT014 SCT023 BKN075 20/20 A3000 RMK AO2 T02020196
K5R8 210635Z AUTO 00000KT 10SM SCT014 SCT018 BKN024 20/20 A3001 RMK AO2 T02020195
K5R8 210615Z AUTO 00000KT 10SM BKN018 OVC025 20/20 A3001 RMK AO2 T02020195
K5R8 210555Z AUTO 00000KT 10SM OVC018 20/19 A3001 RMK AO2 60001 T02000192 10205 20195 402230182
K5R8 210535Z AUTO 00000KT 10SM OVC015 20/19 A3001 RMK AO2 T01980190
K5R8 210515Z AUTO 00000KT 10SM BKN017 20/19 A3001 RMK AO2 T01960190
K5R8 210455Z AUTO 00000KT 10SM SCT021 BKN027 20/19 A3002 RMK AO2 T01950188
K5R8 210435Z AUTO 00000KT 10SM SCT023 20/19 A3001 RMK AO2 T01950188
K5R8 210415Z AUTO 00000KT 10SM CLR 20/19 A3001 RMK AO2 T01950189
K5R8 210355Z AUTO 11003KT 10SM SCT024 SCT034 20/19 A3001 RMK AO2 T01950187
K5R8 210335Z AUTO 10003KT 10SM CLR 20/19 A3001 RMK AO2 T01960188
K5R8 210315Z AUTO 10003KT 10SM CLR 20/19 A3001 RMK AO2 T01960187
K5R8 210255Z AUTO 09003KT 10SM CLR 20/19 A3000 RMK AO2 T01970187
K5R8 210235Z AUTO 00000KT 10SM CLR 20/19 A3000 RMK AO2 T01980187
K5R8 210215Z AUTO 07003KT 10SM CLR 20/19 A3000 RMK AO2 T01980188
K5R8 210155Z AUTO 00000KT 10SM CLR 20/19 A3000 RMK AO2 T01960188
K5R8 210135Z AUTO 00000KT 10SM CLR 20/19 A3001 RMK AO2 LTG DSNT S T01950188
K5R8 210115Z AUTO 00000KT 10SM CLR 20/19 A3001 RMK AO2 T01970188
K5R8 210055Z AUTO 00000KT 10SM CLR 20/19 A3001 RMK AO2 T02000190
K5R8 210035Z AUTO 00000KT 10SM CLR 20/19 A3002 RMK AO2 LTG DSNT S T02010191
K5R8 210015Z AUTO 00000KT 10SM CLR 21/19 A3002 RMK AO2 T02050191
K5R8 202355Z AUTO 00000KT 10SM CLR 21/19 A3002 RMK AO2 60005 T02050193 10221 20205
K5R8 202335Z AUTO 00000KT 10SM CLR 21/20 A3002 RMK AO2 T02050195
K5R8 202315Z AUTO 00000KT 10SM SCT049 21/20 A3003 RMK AO2 T02070197
K5R8 202255Z AUTO 00000KT 10SM SCT040 SCT049 21/20 A3003 RMK AO2 LTG DSNT S T02060195
K5R8 202235Z AUTO 00000KT 10SM BKN040 BKN047 21/20 A3003 RMK AO2 LTG DSNT S T02080195
K5R8 202215Z AUTO 23003KT 10SM VCTS SCT027 SCT041 SCT120 21/20 A3003 RMK AO2 LTG DSNT S T02100195
K5R8 202155Z AUTO 12003KT 10SM -RA SCT060 SCT075 SCT090 21/19 A2999 RMK AO2 LTG DSNT S T02080192
K5R8 202135Z AUTO 00000KT 10SM -RA SCT060 SCT075 SCT090 21/19 A2999 RMK AO2 LTG DSNT S T02070191
K5R8 202115Z AUTO 05003KT 10SM -DZ SCT033 SCT043 21/19 A3002 RMK AO2 LTG DSNT S T02070193
K5R8 202055Z AUTO 00000KT 10SM -RA SCT034 SCT042 BKN049 21/20 A3003 RMK AO2 LTG DSNT S P0002 60005 T02070195
K5R8 202035Z AUTO 00000KT 10SM RA SCT047 BKN055 OVC090 21/20 A3004 RMK AO2 LTG DSNT S P0001 T02060195
K5R8 202015Z AUTO 00000KT 10SM -RA SCT060 BKN070 OVC090 21/19 A3003 RMK AO2 LTG DSNT S T02060193
K5R8 201955Z AUTO 00000KT 10SM -RA SCT070 OVC100 21/19 A3003 RMK AO2 LTG DSNT SW P0002 T02060193
K5R8 201935Z AUTO 16003KT 10SM -RA SCT070 BKN090 OVC110 21/19 A3004 RMK AO2 LTG DSNT S P0001 T02120191
K5R8 201915Z AUTO 00000KT 10SM -RA SCT038 SCT060 SCT085 22/19 A3003 RMK AO2 LTG DSNT S T02160186
K5R8 201855Z AUTO 00000KT 10SM -DZ SCT040 SCT046 SCT050 22/19 A3004 RMK AO2 LTG DSNT S AND SW T02170185
K5R8 201835Z AUTO 00000KT 10SM -RA SCT037 SCT046 BKN060 22/18 A3005 RMK AO2 LTG DSNT S AND SW T02190183
K5R8 201815Z AUTO 07003KT 10SM VCTS CLR 22/18 A3007 RMK AO2 LTG DSNT S T02200181
K5R8 201755Z AUTO 09003KT 10SM CLR 22/18 A3010 RMK AO2 LTG DSNT S T02210181 10223 20192
K5R8 201735Z AUTO 11003KT 10SM CLR 22/18 A3011 RMK AO2 LTG DSNT S AND SW T02220180
K5R8 201715Z AUTO 11003KT 10SM SCT045 22/18 A3011 RMK AO2 LTG DSNT S AND SW T02220180
K5R8 201655Z AUTO 12007KT 10SM VCTS SCT043 22/18 A3012 RMK AO2 LTG DSNT SW T02200180
K5R8 201635Z AUTO 13006KT 10SM VCTS CLR 22/18 A3011 RMK AO2 LTG DSNT S AND SW T02150179
K5R8 201615Z AUTO 10005KT 10SM CLR 21/18 A3009 RMK AO2 LTG DSNT S AND SW T02070176
K5R8 201555Z AUTO 08003KT 10SM VCTS SCT110 21/18 A3010 RMK AO2 LTG DSNT S AND SW T02050175
K5R8 201535Z AUTO 09004KT 10SM SCT120 20/18 A3012 RMK AO2 LTG DSNT S THRU NW T02040175
K5R8 201515Z AUTO 00000KT 10SM SCT120 20/18 A3013 RMK AO2 LTG DSNT S THRU NW T02010175
K5R8 201455Z AUTO 09003KT 10SM SCT120 20/18 A3014 RMK AO2 LTG DSNT S T02010176
K5R8 201435Z AUTO 00000KT 10SM SCT120 20/18 A3013 RMK AO2 LTG DSNT SW AND W T02000176
K5R8 201415Z AUTO 00000KT 10SM VCTS BKN120 20/18 A3013 RMK AO2 LTG DSNT S AND SW T02000176
K5R8 201355Z AUTO 09003KT 10SM SCT055 SCT120 20/18 A3012 RMK AO2 LTG DSNT S AND SW T02010177
K5R8 201335Z AUTO 10005KT 10SM SCT055 BKN120 20/18 A3013 RMK AO2 LTG DSNT S AND SW T02000178
K5R8 201315Z AUTO 10004KT 10SM SCT039 SCT046 BKN050 20/18 A3012 RMK AO2 LTG DSNT S AND SW T01980178